Time;durP1;ratioP1;P1;durP2;ratioP2;P2;SDS_P1;SDS_P2;PMS_P1;PMS_P2;Temp;Humidity;BMP_temperature;BMP_pressure;BME280_temperature;BME280_humidity;BME280_pressure;Samples;Min_cycle;Max_cycle;Signal;HPM_P1;HPM_P2
2022/08/20 00:00:49;;;;;;;1.08;1.05;;;;;;;19.19;73.64;95608.75;5027777;28;20189;-82
2022/08/20 00:03:32;;;;;;;2.60;1.27;;;;;;;19.15;74.23;95607.53;5041834;28;20189;-81
2022/08/20 00:06:07;;;;;;;3.13;1.27;;;;;;;19.21;73.69;95613.81;5016865;28;20259;-81
2022/08/20 00:08:33;;;;;;;1.55;1.15;;;;;;;19.14;74.43;95611.16;5047158;28;20590;-82
2022/08/20 00:10:59;;;;;;;1.20;1.10;;;;;;;19.21;73.77;95616.47;5036727;28;20182;-80
2022/08/20 00:13:47;;;;;;;1.40;1.30;;;;;;;19.23;73.81;95609.97;5028315;28;20247;-81
2022/08/20 00:16:18;;;;;;;2.38;1.52;;;;;;;19.20;73.38;95605.13;5028225;28;20641;-81
2022/08/20 00:18:43;;;;;;;2.25;1.40;;;;;;;19.17;74.03;95615.22;5021267;28;20216;-81
2022/08/20 00:21:10;;;;;;;1.60;1.40;;;;;;;19.13;74.25;95614.00;5045347;28;20212;-81
2022/08/20 00:23:37;;;;;;;1.60;1.33;;;;;;;19.12;74.20;95612.38;5025945;28;20615;-80
2022/08/20 00:26:03;;;;;;;1.50;1.40;;;;;;;19.06;74.94;95619.25;5042246;28;20201;-81
2022/08/20 00:28:29;;;;;;;1.75;1.30;;;;;;;19.09;74.20;95615.44;5036030;28;20189;-81
2022/08/20 00:30:54;;;;;;;1.40;1.30;;;;;;;19.06;74.41;95624.50;5035016;28;20709;-81
2022/08/20 00:33:21;;;;;;;3.53;1.52;;;;;;;19.03;75.13;95624.09;5034672;28;20241;-81
2022/08/20 00:35:51;;;;;;;1.58;1.30;;;;;;;18.95;75.60;95620.63;5045046;28;20204;-80
2022/08/20 00:38:17;;;;;;;1.35;1.23;;;;;;;19.00;75.24;95616.63;5047081;28;20649;-82
2022/08/20 00:40:49;;;;;;;2.30;1.17;;;;;;;19.04;75.43;95610.75;5027760;28;20276;-79
2022/08/20 00:43:37;;;;;;;2.78;1.73;;;;;;;19.05;75.57;95609.72;5047579;28;20177;-81
2022/08/20 00:46:24;;;;;;;1.52;1.38;;;;;;;19.09;75.39;95612.78;5024931;28;20828;-81
2022/08/20 00:48:53;;;;;;;1.42;1.23;;;;;;;19.09;75.12;95616.25;5043248;28;20194;-81
2022/08/20 00:51:33;;;;;;;2.40;1.33;;;;;;;19.05;75.26;95619.44;5044483;28;20633;-82
2022/08/20 00:54:06;;;;;;;1.67;1.30;;;;;;;19.04;75.65;95623.91;5039228;28;20212;-82
2022/08/20 00:56:32;;;;;;;1.30;1.20;;;;;;;19.01;76.03;95628.75;5032648;28;20197;-81
2022/08/20 00:58:58;;;;;;;2.40;1.20;;;;;;;19.07;75.45;95626.13;5038457;28;20284;-81
2022/08/20 01:01:23;;;;;;;1.20;1.10;;;;;;;19.04;75.52;95629.16;5044112;28;20221;-81
2022/08/20 01:03:52;;;;;;;1.55;1.40;;;;;;;19.11;75.45;95629.19;5036729;28;20188;-81
2022/08/20 01:06:17;;;;;;;2.00;1.70;;;;;;;19.08;75.60;95633.03;5021312;28;20203;-82
2022/08/20 01:08:42;;;;;;;1.48;1.38;;;;;;;19.13;75.19;95635.06;5043824;28;20189;-81
2022/08/20 01:11:15;;;;;;;2.72;1.30;;;;;;;19.13;74.94;95640.31;5048245;28;20532;-81
2022/08/20 01:13:41;;;;;;;1.40;1.30;;;;;;;19.14;75.37;95640.13;5045275;28;20213;-81
2022/08/20 01:16:13;;;;;;;2.08;1.15;;;;;;;19.15;75.16;95643.56;5047391;28;20563;-81
2022/08/20 01:18:39;;;;;;;1.67;1.58;;;;;;;19.08;75.53;95634.84;5042226;28;20192;-82
2022/08/20 01:21:05;;;;;;;2.47;1.42;;;;;;;19.09;75.37;95633.84;5048073;28;20177;-81
2022/08/20 01:23:43;;;;;;;1.48;1.30;;;;;;;19.12;75.18;95639.53;5049931;28;20251;-82
2022/08/20 01:26:16;;;;;;;1.55;1.45;;;;;;;19.13;75.16;95630.63;5046220;28;20339;-81
2022/08/20 01:28:53;;;;;;;2.35;1.48;;;;;;;19.09;75.35;95633.84;5046014;28;20181;-82
2022/08/20 01:31:24;;;;;;;1.95;1.60;;;;;;;19.07;75.42;95639.28;5047640;28;20716;-82
2022/08/20 01:33:51;;;;;;;1.52;1.42;;;;;;;19.01;75.88;95640.09;5046763;28;20205;-82
2022/08/20 01:36:21;;;;;;;2.05;1.70;;;;;;;18.91;76.40;95643.09;5046608;28;20194;-82
2022/08/20 01:38:47;;;;;;;2.10;1.63;;;;;;;18.91;76.54;95643.09;5043328;28;20198;-82
2022/08/20 01:41:21;;;;;;;1.70;1.60;;;;;;;18.78;77.39;95637.78;5030846;28;20269;-81
2022/08/20 01:43:49;;;;;;;1.95;1.65;;;;;;;18.79;77.60;95649.09;5041659;28;20837;-82
2022/08/20 01:46:16;;;;;;;2.08;1.85;;;;;;;18.74;77.88;95647.09;5035967;28;20195;-80
2022/08/20 01:48:41;;;;;;;2.00;1.90;;;;;;;18.66;78.54;95649.88;5063737;28;20175;-78
2022/08/20 01:51:13;;;;;;;3.53;2.15;;;;;;;18.66;78.73;95658.56;5063160;28;20162;-79
2022/08/20 01:53:44;;;;;;;2.10;1.95;;;;;;;18.70;78.22;95658.97;5046930;28;20213;-80
2022/08/20 01:56:13;;;;;;;2.47;2.28;;;;;;;18.70;78.00;95661.63;5065239;28;20221;-79
2022/08/20 01:58:42;;;;;;;5.47;2.10;;;;;;;18.65;78.45;95661.41;5052817;28;20823;-80
2022/08/20 02:01:27;;;;;;;4.00;2.03;;;;;;;18.66;78.45;95660.41;5052448;28;20181;-80
2022/08/20 02:03:53;;;;;;;2.53;2.33;;;;;;;18.62;79.11;95654.66;5041191;28;20177;-80
2022/08/20 02:06:24;;;;;;;2.45;2.25;;;;;;;18.60;79.17;95661.94;5066947;28;20635;-83
2022/08/20 02:08:54;;;;;;;3.53;2.90;;;;;;;18.50;79.89;95655.41;5047304;28;20737;-80
2022/08/20 02:11:20;;;;;;;2.60;2.40;;;;;;;18.52;80.15;95658.66;5032922;28;20177;-79
2022/08/20 02:13:51;;;;;;;2.67;2.40;;;;;;;18.56;79.54;95665.97;5048341;28;20216;-79
2022/08/20 02:16:24;;;;;;;2.75;2.30;;;;;;;18.54;80.07;95661.91;5059532;28;20209;-80
2022/08/20 02:18:53;;;;;;;2.90;2.70;;;;;;;18.42;80.78;95666.09;5046942;28;20197;-81
2022/08/20 02:21:19;;;;;;;3.28;3.05;;;;;;;18.47;80.96;95666.34;5042552;28;20185;-81
2022/08/20 02:23:45;;;;;;;3.33;2.63;;;;;;;18.52;80.54;95667.34;5046895;28;20268;-81
2022/08/20 02:26:10;;;;;;;4.32;3.92;;;;;;;18.48;81.03;95667.94;5048838;28;20236;-81
2022/08/20 02:28:35;;;;;;;3.00;2.72;;;;;;;18.48;80.87;95671.38;5060250;28;20594;-81
2022/08/20 02:31:02;;;;;;;4.80;2.80;;;;;;;18.55;80.45;95668.78;5031328;28;20204;-81
2022/08/20 02:33:27;;;;;;;2.90;2.70;;;;;;;18.57;80.35;95674.69;5030208;28;20204;-80
2022/08/20 02:35:55;;;;;;;3.95;3.05;;;;;;;18.58;80.26;95658.69;5027586;28;20209;-79
2022/08/20 02:38:21;;;;;;;3.22;2.92;;;;;;;18.53;80.76;95670.78;5046450;28;20606;-79
2022/08/20 02:40:47;;;;;;;3.30;2.90;;;;;;;18.53;80.78;95670.78;5038771;28;20181;-79
2022/08/20 02:43:14;;;;;;;5.53;3.17;;;;;;;18.53;81.05;95671.59;5062258;28;20182;-79
2022/08/20 02:45:42;;;;;;;3.70;3.40;;;;;;;18.53;81.05;95665.53;5045366;28;20280;-81
2022/08/20 02:48:10;;;;;;;3.60;3.08;;;;;;;18.42;81.81;95669.53;5064609;28;20192;-81
2022/08/20 02:50:35;;;;;;;4.53;3.38;;;;;;;18.47;81.54;95668.97;5024383;28;20196;-81
2022/08/20 02:53:01;;;;;;;3.17;2.97;;;;;;;18.49;81.71;95667.75;5046013;28;20641;-79
2022/08/20 02:55:26;;;;;;;4.82;4.10;;;;;;;18.50;81.62;95664.13;5047243;28;20227;-81
2022/08/20 02:57:53;;;;;;;3.20;2.90;;;;;;;18.48;81.59;95660.06;5044745;28;20189;-80
2022/08/20 03:00:20;;;;;;;3.78;3.17;;;;;;;18.49;81.88;95659.06;5039092;28;20190;-80
2022/08/20 03:02:45;;;;;;;3.70;3.40;;;;;;;18.54;81.62;95654.81;5049202;28;20189;-81
2022/08/20 03:05:12;;;;;;;4.63;3.03;;;;;;;18.60;81.13;95655.88;5028184;28;20569;-80
2022/08/20 03:07:42;;;;;;;3.58;3.00;;;;;;;18.61;81.02;95657.50;5029600;28;20181;-81
2022/08/20 03:10:08;;;;;;;3.40;3.10;;;;;;;18.68;80.50;95658.38;5065044;28;20215;-82
2022/08/20 03:12:34;;;;;;;3.97;2.90;;;;;;;18.74;80.34;95662.06;5037517;28;20312;-81
2022/08/20 03:14:59;;;;;;;3.13;2.92;;;;;;;18.57;81.72;95664.16;5028342;28;21134;-81
2022/08/20 03:17:24;;;;;;;4.03;3.63;;;;;;;18.69;81.18;95665.25;5046812;28;20188;-81
2022/08/20 03:19:49;;;;;;;5.38;3.80;;;;;;;18.69;81.07;95667.88;5062803;28;20209;-81
2022/08/20 03:22:15;;;;;;;3.95;3.65;;;;;;;18.70;81.24;95658.97;5030094;28;20231;-82
2022/08/20 03:24:40;;;;;;;4.60;3.55;;;;;;;18.59;81.84;95659.50;5055101;28;20208;-80
2022/08/20 03:27:05;;;;;;;4.13;3.83;;;;;;;18.66;81.76;95660.41;5025207;28;20650;-80
2022/08/20 03:29:31;;;;;;;4.25;3.85;;;;;;;18.73;80.98;95666.50;5046017;28;20245;-82
2022/08/20 03:31:56;;;;;;;4.75;3.90;;;;;;;18.71;81.00;95660.59;5044397;28;20181;-82
2022/08/20 03:34:22;;;;;;;4.40;4.00;;;;;;;18.73;81.19;95663.03;5026801;28;20606;-81
2022/08/20 03:36:47;;;;;;;4.40;3.95;;;;;;;18.65;81.87;95653.50;5013605;28;20205;-82
2022/08/20 03:39:12;;;;;;;4.13;3.83;;;;;;;18.73;81.35;95655.97;5038058;28;20560;-81
2022/08/20 03:41:38;;;;;;;6.05;4.00;;;;;;;18.70;82.02;95661.63;5027489;28;20558;-82
2022/08/20 03:44:05;;;;;;;4.03;3.60;;;;;;;18.75;81.12;95659.22;5049655;28;20177;-83
2022/08/20 03:46:31;;;;;;;4.97;4.50;;;;;;;18.76;81.24;95654.78;5038292;28;20188;-82
2022/08/20 03:48:56;;;;;;;4.20;3.85;;;;;;;18.74;81.69;95654.97;5044225;28;20217;-81
2022/08/20 03:51:21;;;;;;;4.50;4.10;;;;;;;18.73;81.52;95649.88;5037590;28;20201;-82
2022/08/20 03:53:46;;;;;;;4.50;4.10;;;;;;;18.75;81.72;95647.88;5044066;28;20686;-82
2022/08/20 03:56:12;;;;;;;5.63;4.00;;;;;;;18.70;82.07;95648.47;5043838;28;20229;-82
2022/08/20 03:58:37;;;;;;;4.40;4.00;;;;;;;18.70;82.04;95648.47;5046761;28;20213;-82
2022/08/20 04:01:04;;;;;;;5.00;4.40;;;;;;;18.73;81.97;95645.47;5044147;28;20209;-81
2022/08/20 04:03:30;;;;;;;4.50;4.07;;;;;;;18.80;81.50;95650.72;5044642;28;20684;-79
2022/08/20 04:05:55;;;;;;;6.00;3.80;;;;;;;18.76;81.78;95655.59;5029554;28;20214;-82
2022/08/20 04:08:26;;;;;;;5.55;4.45;;;;;;;18.81;81.59;95658.41;5045984;28;20181;-81
2022/08/20 04:10:52;;;;;;;5.00;4.60;;;;;;;18.79;81.70;95660.44;5038149;28;20264;-81
2022/08/20 04:13:19;;;;;;;4.28;3.60;;;;;;;18.80;81.66;95662.06;5023891;28;20320;-82
2022/08/20 04:15:45;;;;;;;4.88;3.95;;;;;;;18.76;81.86;95662.66;5044552;28;20201;-80
2022/08/20 04:18:11;;;;;;;6.03;3.90;;;;;;;18.80;81.38;95650.72;5063960;28;20188;-82
2022/08/20 04:20:40;;;;;;;5.55;4.13;;;;;;;18.74;81.87;95656.78;5027048;28;20189;-81
2022/08/20 04:23:06;;;;;;;6.13;4.40;;;;;;;18.77;82.11;95656.38;5045393;28;20169;-80
2022/08/20 04:25:33;;;;;;;5.18;4.68;;;;;;;18.78;81.83;95653.56;5044845;28;20200;-80
2022/08/20 04:28:00;;;;;;;5.30;4.15;;;;;;;18.75;82.57;95653.97;5021212;28;20186;-83
2022/08/20 04:30:26;;;;;;;5.35;4.55;;;;;;;18.77;82.19;95667.72;5045383;28;20181;-81
2022/08/20 04:32:52;;;;;;;5.78;4.20;;;;;;;18.77;82.11;95670.34;5045378;28;20201;-81
2022/08/20 04:35:17;;;;;;;5.30;4.50;;;;;;;18.70;82.71;95666.88;5023790;28;20217;-83
2022/08/20 04:37:46;;;;;;;5.30;4.25;;;;;;;18.74;82.44;95662.88;5044915;28;20192;-81
2022/08/20 04:43:03;;;;;;;4.30;3.90;;;;;;;18.75;82.29;95668.94;5048450;28;20184;-82
2022/08/20 04:45:29;;;;;;;8.38;4.30;;;;;;;18.76;82.32;95667.94;5043506;28;20205;-81
2022/08/20 04:47:55;;;;;;;4.55;3.97;;;;;;;18.78;82.16;95674.59;5049393;28;20180;-82
2022/08/20 04:50:21;;;;;;;5.72;4.30;;;;;;;18.80;82.71;95674.41;5047233;28;20208;-82
2022/08/20 04:52:49;;;;;;;4.40;4.00;;;;;;;18.82;82.27;95683.75;5048026;28;20578;-81
2022/08/20 04:55:15;;;;;;;5.15;4.10;;;;;;;18.82;82.57;95672.41;5029863;28;20584;-81
2022/08/20 04:57:41;;;;;;;5.40;4.63;;;;;;;18.87;82.17;95676.06;5030295;28;20711;-82
2022/08/20 05:00:14;;;;;;;4.43;3.67;;;;;;;18.93;81.60;95671.84;5029970;28;20186;-81
2022/08/20 05:02:40;;;;;;;5.55;4.20;;;;;;;18.95;81.79;95675.91;5028180;28;20180;-81
2022/08/20 05:05:07;;;;;;;6.00;4.05;;;;;;;18.95;81.41;95675.91;5030694;28;20205;-82
2022/08/20 05:07:43;;;;;;;6.97;3.85;;;;;;;18.94;81.49;95679.53;5031856;28;20549;-81
2022/08/20 05:10:11;;;;;;;5.05;4.28;;;;;;;18.95;81.69;95681.16;5025531;28;20244;-80
2022/08/20 05:12:36;;;;;;;4.30;3.90;;;;;;;18.76;82.70;95684.53;5029362;28;20364;-82
2022/08/20 05:15:03;;;;;;;4.55;3.75;;;;;;;18.86;82.08;95687.59;5048750;28;20612;-82
2022/08/20 05:17:28;;;;;;;4.90;4.10;;;;;;;18.84;82.37;95691.44;5031705;28;20243;-83
2022/08/20 05:19:54;;;;;;;5.60;4.38;;;;;;;18.94;81.75;95692.69;5030782;28;20189;-82
2022/08/20 05:22:19;;;;;;;5.07;4.43;;;;;;;18.95;81.75;95688.25;5050330;28;20192;-82
2022/08/20 05:24:44;;;;;;;4.53;4.10;;;;;;;19.08;80.94;95684.84;5040612;28;20597;-84
2022/08/20 05:27:10;;;;;;;4.35;3.75;;;;;;;19.10;80.60;95686.28;5048241;28;20177;-82
2022/08/20 05:29:35;;;;;;;4.32;3.92;;;;;;;19.06;81.07;95698.19;5042287;28;20193;-80
2022/08/20 05:32:01;;;;;;;4.07;3.65;;;;;;;19.06;81.25;95698.19;5026886;28;20193;-80
2022/08/20 05:34:26;;;;;;;4.88;3.90;;;;;;;19.14;80.33;95694.59;5026413;28;20217;-84
2022/08/20 05:36:52;;;;;;;4.35;3.90;;;;;;;19.10;80.50;95698.63;5030537;28;20194;-84
2022/08/20 05:39:20;;;;;;;4.18;3.80;;;;;;;19.08;81.08;95688.31;5043394;28;20201;-83
2022/08/20 05:41:48;;;;;;;5.00;4.50;;;;;;;19.07;81.52;95688.47;5031101;28;20189;-81
2022/08/20 05:44:14;;;;;;;5.10;3.88;;;;;;;19.06;81.97;95684.22;5064976;28;20216;-82
2022/08/20 05:46:41;;;;;;;4.85;4.32;;;;;;;19.07;81.58;95699.81;5043408;28;20181;-81
2022/08/20 05:49:14;;;;;;;5.75;4.07;;;;;;;19.08;81.53;95683.06;5031175;28;20189;-82
2022/08/20 05:51:39;;;;;;;4.88;4.47;;;;;;;18.95;82.31;95701.41;5032417;28;20181;-82
2022/08/20 05:54:05;;;;;;;4.93;3.88;;;;;;;19.06;81.80;95705.28;5045461;28;20228;-81
2022/08/20 05:56:31;;;;;;;5.97;4.20;;;;;;;19.00;82.06;95704.28;5027408;28;20691;-81
2022/08/20 05:59:03;;;;;;;5.22;4.15;;;;;;;19.04;81.43;95707.31;5045693;28;20184;-81
2022/08/20 06:01:30;;;;;;;5.53;4.43;;;;;;;19.14;80.74;95694.59;5046905;28;20241;-80
2022/08/20 06:06:39;;;;;;;4.70;4.30;;;;;;;19.28;80.31;95698.09;5050276;28;20192;-83
2022/08/20 06:09:04;;;;;;;4.75;4.15;;;;;;;19.36;79.73;95695.28;5038495;28;20574;-82
2022/08/20 06:11:30;;;;;;;4.78;4.35;;;;;;;19.41;80.11;95693.66;5038243;28;20193;-82
2022/08/20 06:13:55;;;;;;;4.15;3.75;;;;;;;19.51;79.73;95707.25;5037310;28;20217;-83
2022/08/20 06:16:21;;;;;;;5.25;4.32;;;;;;;19.50;79.20;95710.91;5043526;28;20233;-82
2022/08/20 06:18:46;;;;;;;6.00;4.15;;;;;;;19.51;78.81;95704.63;5043659;28;20185;-83
2022/08/20 06:21:11;;;;;;;5.97;4.68;;;;;;;19.53;79.11;95710.53;5027778;28;20686;-82
2022/08/20 06:23:37;;;;;;;6.03;4.82;;;;;;;19.61;78.35;95709.53;5046292;28;20181;-83
2022/08/20 06:26:02;;;;;;;6.45;4.45;;;;;;;19.63;78.45;95709.38;5036336;28;20306;-82
2022/08/20 06:28:27;;;;;;;6.45;4.40;;;;;;;19.88;77.18;95715.69;5044888;28;20194;-83
2022/08/20 06:30:53;;;;;;;5.60;4.53;;;;;;;20.04;76.19;95703.91;5046195;28;20192;-83
2022/08/20 06:33:18;;;;;;;4.85;4.35;;;;;;;20.23;75.42;95702.28;5011641;28;20203;-83
2022/08/20 06:35:43;;;;;;;5.63;4.90;;;;;;;20.50;74.08;95711.84;5062223;28;20258;-82
2022/08/20 06:38:11;;;;;;;5.78;4.88;;;;;;;20.67;73.49;95708.75;5037872;28;20178;-83
2022/08/20 06:40:37;;;;;;;6.38;4.90;;;;;;;20.73;72.40;95715.84;5026571;28;20240;-82
2022/08/20 06:43:02;;;;;;;8.23;5.28;;;;;;;20.69;72.61;95717.31;5045138;28;20637;-83
2022/08/20 06:45:31;;;;;;;5.55;4.68;;;;;;;20.95;71.66;95713.78;5024840;28;20292;-82
2022/08/20 06:48:01;;;;;;;6.07;4.57;;;;;;;21.10;70.51;95720.41;5057536;28;20185;-82
2022/08/20 06:50:38;;;;;;;4.53;4.22;;;;;;;21.46;69.07;95721.72;5040109;28;20197;-78
2022/08/20 06:53:08;;;;;;;3.97;3.67;;;;;;;21.66;68.25;95717.16;5021461;28;20247;-78
2022/08/20 06:55:35;;;;;;;4.22;3.83;;;;;;;21.78;67.48;95714.63;5024400;28;20208;-78
2022/08/20 06:58:04;;;;;;;6.13;4.10;;;;;;;21.99;67.20;95722.19;5024953;28;20673;-79
2022/08/20 07:00:31;;;;;;;4.57;4.18;;;;;;;22.04;66.35;95722.38;5037666;28;20257;-78
2022/08/20 07:02:59;;;;;;;4.43;3.97;;;;;;;22.08;66.31;95722.78;5028322;28;20214;-78
2022/08/20 07:05:26;;;;;;;5.60;3.90;;;;;;;22.14;65.58;95718.47;5028984;28;20300;-78
2022/08/20 07:07:51;;;;;;;4.07;3.65;;;;;;;22.37;64.34;95723.19;5045817;28;20793;-78
2022/08/20 07:10:19;;;;;;;4.72;3.50;;;;;;;22.51;64.41;95724.66;5024798;28;20197;-78
2022/08/20 07:12:45;;;;;;;4.13;3.50;;;;;;;22.39;64.53;95726.41;5045940;28;20217;-77
2022/08/20 07:15:12;;;;;;;4.80;3.92;;;;;;;22.57;63.96;95735.19;5045850;28;20642;-78
2022/08/20 07:17:39;;;;;;;5.25;4.05;;;;;;;22.27;64.13;95726.31;5043808;28;20216;-78
2022/08/20 07:20:11;;;;;;;4.95;4.15;;;;;;;22.18;64.41;95736.34;5045637;28;20188;-78
2022/08/20 07:22:36;;;;;;;5.43;4.10;;;;;;;22.16;64.77;95732.28;5029840;28;20177;-81
2022/08/20 07:25:03;;;;;;;4.57;4.18;;;;;;;22.20;64.74;95729.00;5035681;28;20228;-77
2022/08/20 07:27:29;;;;;;;4.05;3.75;;;;;;;22.12;64.74;95739.84;5044756;28;20621;-77
2022/08/20 07:32:58;;;;;;;3.75;3.45;;;;;;;22.20;64.35;95739.59;5001770;28;20213;-78
2022/08/20 07:35:23;;;;;;;4.25;3.90;;;;;;;22.44;63.77;95742.44;4999096;28;20211;-78
2022/08/20 07:37:50;;;;;;;3.90;3.60;;;;;;;22.32;63.97;95748.44;4985835;28;20270;-78
2022/08/20 07:40:23;;;;;;;3.83;3.53;;;;;;;22.45;63.55;95744.88;4984747;28;20246;-78
2022/08/20 07:42:49;;;;;;;4.15;3.75;;;;;;;22.28;64.00;95752.56;4999320;28;20246;-77
2022/08/20 07:45:17;;;;;;;3.85;3.33;;;;;;;22.22;64.46;95744.66;4983971;28;20223;-78
2022/08/20 07:47:44;;;;;;;4.00;2.83;;;;;;;22.26;64.62;95753.78;5001835;28;20378;-77
2022/08/20 07:50:13;;;;;;;3.35;3.05;;;;;;;21.98;65.15;95746.22;4994741;28;20728;-77
2022/08/20 07:52:39;;;;;;;5.10;2.97;;;;;;;21.84;65.47;95750.78;4995786;28;20235;-78
2022/08/20 07:55:07;;;;;;;4.68;3.08;;;;;;;21.85;65.92;95756.88;5027267;28;20231;-77
2022/08/20 07:57:33;;;;;;;4.32;3.33;;;;;;;21.79;65.97;95758.53;5026416;28;20190;-77
2022/08/20 07:59:58;;;;;;;3.38;3.08;;;;;;;21.65;66.58;95765.75;5000608;28;20172;-77
2022/08/20 08:02:27;;;;;;;3.10;2.80;;;;;;;21.62;66.57;95762.69;5026259;28;20205;-78
2022/08/20 08:04:53;;;;;;;3.13;2.92;;;;;;;21.58;66.87;95767.59;5044350;28;20225;-78
2022/08/20 08:07:18;;;;;;;5.38;2.90;;;;;;;21.70;66.16;95768.53;5045282;28;20189;-79
2022/08/20 08:09:44;;;;;;;3.50;2.50;;;;;;;21.62;66.94;95773.25;5038969;28;20193;-79
2022/08/20 08:12:12;;;;;;;3.28;2.63;;;;;;;21.61;65.60;95767.16;5063009;28;20661;-79
2022/08/20 08:14:38;;;;;;;2.92;2.72;;;;;;;21.52;66.77;95765.78;5028275;28;20209;-79
2022/08/20 08:17:04;;;;;;;3.00;2.80;;;;;;;21.69;66.22;95763.47;5039201;28;20642;-78
2022/08/20 08:19:37;;;;;;;3.05;2.50;;;;;;;21.76;66.64;95764.25;5029566;28;20208;-80
2022/08/20 08:22:03;;;;;;;3.08;2.75;;;;;;;22.03;65.68;95760.44;5031545;28;20181;-80
2022/08/20 08:24:28;;;;;;;2.60;2.40;;;;;;;22.18;65.02;95757.50;5040844;28;20208;-78
2022/08/20 08:26:53;;;;;;;4.10;2.67;;;;;;;22.39;63.57;95763.47;5027827;28;20186;-79
2022/08/20 08:29:19;;;;;;;2.58;2.38;;;;;;;22.13;63.75;95759.19;5042823;28;20189;-79
2022/08/20 08:31:44;;;;;;;3.75;2.50;;;;;;;21.96;64.71;95764.94;5045194;28;20189;-78
2022/08/20 08:34:10;;;;;;;4.25;2.45;;;;;;;22.12;64.06;95760.19;5035368;28;20287;-80
2022/08/20 08:36:38;;;;;;;2.40;2.17;;;;;;;21.77;64.26;95758.75;5042968;28;20849;-80
2022/08/20 08:39:03;;;;;;;2.70;2.00;;;;;;;21.59;65.75;95763.94;5028695;28;20231;-80
2022/08/20 08:41:38;;;;;;;3.72;2.28;;;;;;;21.65;65.33;95757.81;5026567;28;20182;-82
2022/08/20 08:44:12;;;;;;;2.45;2.25;;;;;;;21.63;65.31;95770.41;5025154;28;20192;-81
2022/08/20 08:46:41;;;;;;;4.75;2.35;;;;;;;21.73;65.48;95762.84;5045295;28;20723;-81
2022/08/20 08:49:10;;;;;;;2.50;2.30;;;;;;;21.54;66.24;95766.38;5038425;28;20196;-80
2022/08/20 08:51:40;;;;;;;4.05;2.17;;;;;;;21.92;65.29;95769.03;5045693;28;20216;-81
2022/08/20 08:54:07;;;;;;;2.40;2.20;;;;;;;21.75;65.28;95776.66;5022879;28;20206;-80
2022/08/20 08:56:33;;;;;;;2.22;2.03;;;;;;;22.19;63.94;95779.47;5029337;28;20194;-79
2022/08/20 08:59:03;;;;;;;3.97;2.20;;;;;;;22.53;62.79;95781.66;5037260;28;20651;-81
2022/08/20 09:01:31;;;;;;;2.53;2.33;;;;;;;22.64;62.06;95777.50;5025859;28;20197;-79
2022/08/20 09:03:56;;;;;;;2.85;2.25;;;;;;;22.70;61.80;95783.75;5039568;28;20262;-80
2022/08/20 09:06:23;;;;;;;3.15;2.15;;;;;;;22.73;61.73;95778.03;5027438;28;20249;-80
2022/08/20 09:08:59;;;;;;;2.58;1.90;;;;;;;22.54;62.26;95777.19;5042103;28;20194;-81
2022/08/20 09:11:25;;;;;;;2.47;2.15;;;;;;;22.49;61.79;95777.00;5043471;28;20196;-80
2022/08/20 09:13:53;;;;;;;2.67;2.47;;;;;;;22.38;63.22;95781.16;5024958;28;20216;-79
2022/08/20 09:16:19;;;;;;;2.83;2.40;;;;;;;22.18;67.27;95783.16;5061316;28;20692;-79
2022/08/20 09:18:44;;;;;;;3.47;2.40;;;;;;;21.78;69.24;95789.44;5044627;28;20209;-82
2022/08/20 09:21:10;;;;;;;3.45;2.70;;;;;;;21.59;70.88;95790.34;5038238;28;20185;-80
2022/08/20 09:23:36;;;;;;;3.45;2.40;;;;;;;21.48;71.56;95788.38;5044222;28;20255;-79
2022/08/20 09:26:01;;;;;;;5.25;2.90;;;;;;;21.11;74.12;95798.59;5044417;28;20201;-80
2022/08/20 09:28:27;;;;;;;2.85;2.65;;;;;;;21.15;74.49;95794.53;5036561;28;20213;-81
2022/08/20 09:30:52;;;;;;;2.88;2.67;;;;;;;20.84;77.23;95797.03;5043100;28;20713;-80
2022/08/20 09:33:17;;;;;;;2.58;2.38;;;;;;;20.69;77.12;95799.91;5045895;28;20644;-79
2022/08/20 09:35:45;;;;;;;2.30;2.10;;;;;;;20.67;77.50;95795.84;5047943;28;20250;-84
2022/08/20 09:38:11;;;;;;;3.20;2.58;;;;;;;20.46;78.96;95800.31;5041128;28;20185;-85
2022/08/20 09:40:36;;;;;;;3.00;2.70;;;;;;;20.40;79.76;95798.44;5045661;28;20182;-85
2022/08/20 09:43:04;;;;;;;2.92;2.72;;;;;;;20.47;79.51;95795.84;5044417;28;20224;-84
2022/08/20 09:45:30;;;;;;;3.70;3.38;;;;;;;20.21;81.22;95796.59;5044176;28;20206;-85
2022/08/20 09:47:55;;;;;;;2.92;2.72;;;;;;;20.33;81.49;95797.66;5032695;28;20193;-84
2022/08/20 09:50:21;;;;;;;2.42;2.22;;;;;;;20.42;81.51;95798.25;5039103;28;20224;-86
2022/08/20 09:52:48;;;;;;;4.45;3.00;;;;;;;20.66;80.64;95795.03;5031679;28;20241;-82
2022/08/20 09:55:19;;;;;;;3.17;2.72;;;;;;;20.95;80.32;95793.78;5048473;28;20214;-83
2022/08/20 09:57:45;;;;;;;2.30;2.10;;;;;;;21.10;79.51;95791.69;5066651;28;20281;-81
2022/08/20 10:00:11;;;;;;;2.55;2.22;;;;;;;21.37;78.20;95794.28;5046516;28;20223;-81
2022/08/20 10:02:36;;;;;;;2.28;2.08;;;;;;;21.45;79.07;95794.06;5045724;28;20205;-81
2022/08/20 10:05:02;;;;;;;2.00;1.80;;;;;;;21.71;75.95;95791.31;5030984;28;20232;-81
2022/08/20 10:07:27;;;;;;;3.38;1.92;;;;;;;21.95;74.69;95794.25;5030910;28;20181;-81
2022/08/20 10:09:53;;;;;;;1.75;1.65;;;;;;;22.10;74.30;95794.81;5039612;28;20556;-81
2022/08/20 10:12:18;;;;;;;1.73;1.63;;;;;;;22.26;73.74;95801.38;5043859;28;20396;-82
2022/08/20 10:14:43;;;;;;;1.52;1.42;;;;;;;22.11;72.01;95796.41;5046712;28;20235;-83
2022/08/20 10:17:08;;;;;;;2.05;1.52;;;;;;;22.52;70.72;95795.09;5046969;28;20181;-82
2022/08/20 10:19:34;;;;;;;1.23;1.13;;;;;;;22.78;69.62;95791.41;5045394;28;20188;-83
2022/08/20 10:21:59;;;;;;;1.30;1.20;;;;;;;22.91;68.08;95786.03;5039092;28;20213;-82
2022/08/20 10:24:25;;;;;;;2.38;1.10;;;;;;;22.99;68.23;95790.25;5029024;28;20220;-81
2022/08/20 10:26:55;;;;;;;1.27;1.17;;;;;;;22.63;69.37;95786.47;5044814;28;20189;-82
2022/08/20 10:29:20;;;;;;;1.63;1.10;;;;;;;22.82;69.53;95780.19;5040057;28;20615;-82
2022/08/20 10:31:45;;;;;;;1.92;1.23;;;;;;;22.97;69.87;95782.53;5031785;28;20181;-82
2022/08/20 10:34:11;;;;;;;1.08;1.08;;;;;;;23.26;68.22;95772.22;5067479;28;20227;-82
2022/08/20 10:36:36;;;;;;;0.98;0.98;;;;;;;23.81;65.80;95761.56;5063443;28;20177;-82
2022/08/20 10:39:02;;;;;;;0.82;0.82;;;;;;;23.74;62.93;95772.25;5047070;28;20185;-83
2022/08/20 10:41:27;;;;;;;0.80;0.77;;;;;;;23.58;62.43;95770.19;5040282;28;20544;-82
2022/08/20 10:43:52;;;;;;;1.45;1.10;;;;;;;23.67;62.37;95763.56;5026156;28;20642;-83
2022/08/20 10:46:18;;;;;;;1.20;1.10;;;;;;;23.68;63.28;95755.44;5047058;28;20205;-82
2022/08/20 10:48:43;;;;;;;2.05;0.95;;;;;;;23.10;63.90;95761.19;5047054;28;20196;-83
2022/08/20 10:51:09;;;;;;;0.85;0.70;;;;;;;24.02;61.69;95763.72;5028420;28;20182;-81
2022/08/20 10:53:34;;;;;;;1.05;0.80;;;;;;;24.02;59.93;95759.22;5029728;28;20217;-82
2022/08/20 10:56:00;;;;;;;1.50;0.60;;;;;;;24.01;60.24;95752.28;5038154;28;20221;-81
2022/08/20 10:58:26;;;;;;;0.70;0.70;;;;;;;24.10;58.69;95757.28;5025318;28;20197;-83
2022/08/20 11:00:51;;;;;;;0.82;0.70;;;;;;;23.63;58.96;95767.72;5030864;28;20551;-83
2022/08/20 11:03:17;;;;;;;1.02;0.80;;;;;;;23.96;59.42;95765.44;5046145;28;20277;-83
2022/08/20 11:05:42;;;;;;;1.17;0.85;;;;;;;23.66;58.76;95765.41;5063558;28;20628;-83
2022/08/20 11:08:08;;;;;;;1.25;0.77;;;;;;;23.98;58.12;95758.06;5047831;28;20181;-83
2022/08/20 11:10:34;;;;;;;2.30;0.80;;;;;;;24.05;57.12;95757.16;5045609;28;20232;-83
2022/08/20 11:13:01;;;;;;;0.73;0.73;;;;;;;24.02;57.67;95751.25;5045787;28;20293;-81
2022/08/20 11:15:26;;;;;;;0.75;0.75;;;;;;;24.28;56.42;95749.22;5046937;28;20229;-82
2022/08/20 11:17:51;;;;;;;0.65;0.65;;;;;;;24.41;55.97;95745.59;5024634;28;20220;-83
2022/08/20 11:20:18;;;;;;;0.80;0.70;;;;;;;24.81;53.79;95749.19;5025657;28;20192;-81
2022/08/20 11:22:44;;;;;;;0.80;0.80;;;;;;;24.30;54.51;95758.59;5040880;28;20181;-83
2022/08/20 11:25:09;;;;;;;1.23;0.95;;;;;;;24.41;54.15;95742.94;5027258;28;20194;-84
2022/08/20 11:27:37;;;;;;;0.82;0.82;;;;;;;24.80;54.20;95749.41;5026289;28;20244;-84
2022/08/20 11:30:07;;;;;;;1.05;0.95;;;;;;;24.70;54.16;95747.34;5043498;28;20268;-81
2022/08/20 11:32:32;;;;;;;1.23;0.90;;;;;;;24.91;54.72;95750.44;5029263;28;20207;-81
2022/08/20 11:34:57;;;;;;;1.02;1.02;;;;;;;24.51;55.30;95754.63;5041865;28;20205;-81
2022/08/20 11:37:23;;;;;;;1.00;1.00;;;;;;;24.67;55.33;95760.28;5045592;28;20664;-80
2022/08/20 11:39:49;;;;;;;0.80;0.80;;;;;;;24.34;55.14;95761.63;5043123;28;20192;-81
2022/08/20 11:42:14;;;;;;;1.95;1.10;;;;;;;24.22;55.70;95763.44;5027590;28;20189;-81